sensor_id;sensor_type;location;lat;lon;timestamp;pressure;altitude;pressure_sealevel;temperature
11321;BMP180;5715;48.234;14.320;2023-02-28T00:01:57;99328.00;;;8.80
11321;BMP180;5715;48.234;14.320;2023-02-28T00:04:44;99329.00;;;8.80
11321;BMP180;5715;48.234;14.320;2023-02-28T00:07:32;99326.00;;;8.60
11321;BMP180;5715;48.234;14.320;2023-02-28T00:10:24;99318.00;;;8.80
11321;BMP180;5715;48.234;14.320;2023-02-28T00:13:13;99312.00;;;8.70
11321;BMP180;5715;48.234;14.320;2023-02-28T00:16:14;99312.00;;;8.60
11321;BMP180;5715;48.234;14.320;2023-02-28T00:19:02;99321.00;;;8.40
11321;BMP180;5715;48.234;14.320;2023-02-28T00:21:49;99308.00;;;8.40
11321;BMP180;5715;48.234;14.320;2023-02-28T00:24:37;99317.00;;;8.30
11321;BMP180;5715;48.234;14.320;2023-02-28T00:27:24;99313.00;;;8.30
11321;BMP180;5715;48.234;14.320;2023-02-28T00:30:16;99315.00;;;8.10
11321;BMP180;5715;48.234;14.320;2023-02-28T00:33:04;99311.00;;;8.40
11321;BMP180;5715;48.234;14.320;2023-02-28T00:35:52;99304.00;;;8.30
11321;BMP180;5715;48.234;14.320;2023-02-28T00:38:48;99305.00;;;8.20
11321;BMP180;5715;48.234;14.320;2023-02-28T00:41:35;99300.00;;;8.30
11321;BMP180;5715;48.234;14.320;2023-02-28T00:44:22;99305.00;;;8.20
11321;BMP180;5715;48.234;14.320;2023-02-28T00:47:10;99304.00;;;7.90
11321;BMP180;5715;48.234;14.320;2023-02-28T00:49:57;99298.00;;;8.10
11321;BMP180;5715;48.234;14.320;2023-02-28T00:52:46;99294.00;;;8.10
11321;BMP180;5715;48.234;14.320;2023-02-28T00:55:34;99286.00;;;8.10
11321;BMP180;5715;48.234;14.320;2023-02-28T00:58:22;99287.00;;;8.10
11321;BMP180;5715;48.234;14.320;2023-02-28T01:01:09;99288.00;;;7.80
11321;BMP180;5715;48.234;14.320;2023-02-28T01:03:57;99287.00;;;7.70
11321;BMP180;5715;48.234;14.320;2023-02-28T01:06:44;99280.00;;;8.00
11321;BMP180;5715;48.234;14.320;2023-02-28T01:09:32;99269.00;;;8.10
11321;BMP180;5715;48.234;14.320;2023-02-28T01:12:19;99271.00;;;7.90
11321;BMP180;5715;48.234;14.320;2023-02-28T01:15:10;99272.00;;;8.00
11321;BMP180;5715;48.234;14.320;2023-02-28T01:17:58;99268.00;;;7.60
11321;BMP180;5715;48.234;14.320;2023-02-28T01:20:46;99267.00;;;7.50
11321;BMP180;5715;48.234;14.320;2023-02-28T01:23:33;99264.00;;;7.70
11321;BMP180;5715;48.234;14.320;2023-02-28T01:26:23;99262.00;;;7.70
11321;BMP180;5715;48.234;14.320;2023-02-28T01:29:10;99262.00;;;7.80
11321;BMP180;5715;48.234;14.320;2023-02-28T01:31:58;99257.00;;;7.80
11321;BMP180;5715;48.234;14.320;2023-02-28T01:34:47;99259.00;;;7.80
11321;BMP180;5715;48.234;14.320;2023-02-28T01:37:34;99256.00;;;7.80
11321;BMP180;5715;48.234;14.320;2023-02-28T01:40:22;99255.00;;;7.80
11321;BMP180;5715;48.234;14.320;2023-02-28T01:46:10;99264.00;;;7.80
11321;BMP180;5715;48.234;14.320;2023-02-28T01:49:15;99258.00;;;7.80
11321;BMP180;5715;48.234;14.320;2023-02-28T01:52:04;99255.00;;;7.70
11321;BMP180;5715;48.234;14.320;2023-02-28T01:54:55;99252.00;;;7.80
11321;BMP180;5715;48.234;14.320;2023-02-28T01:57:50;99251.00;;;7.80
11321;BMP180;5715;48.234;14.320;2023-02-28T02:00:39;99245.00;;;7.70
11321;BMP180;5715;48.234;14.320;2023-02-28T02:03:30;99248.00;;;7.80
11321;BMP180;5715;48.234;14.320;2023-02-28T02:06:18;99240.00;;;7.60
11321;BMP180;5715;48.234;14.320;2023-02-28T02:09:05;99237.00;;;7.70
11321;BMP180;5715;48.234;14.320;2023-02-28T02:11:56;99231.00;;;7.60
11321;BMP180;5715;48.234;14.320;2023-02-28T02:15:12;99229.00;;;7.60
11321;BMP180;5715;48.234;14.320;2023-02-28T02:18:48;99231.00;;;7.70
11321;BMP180;5715;48.234;14.320;2023-02-28T02:29:20;99223.00;;;7.60
11321;BMP180;5715;48.234;14.320;2023-02-28T02:35:54;99224.00;;;7.40
11321;BMP180;5715;48.234;14.320;2023-02-28T02:39:14;99229.00;;;7.60
11321;BMP180;5715;48.234;14.320;2023-02-28T02:42:15;99223.00;;;7.60
11321;BMP180;5715;48.234;14.320;2023-02-28T02:45:28;99221.00;;;7.50
11321;BMP180;5715;48.234;14.320;2023-02-28T02:48:29;99226.00;;;7.60
11321;BMP180;5715;48.234;14.320;2023-02-28T02:51:21;99226.00;;;7.40
11321;BMP180;5715;48.234;14.320;2023-02-28T02:54:40;99228.00;;;7.60
11321;BMP180;5715;48.234;14.320;2023-02-28T02:57:59;99224.00;;;7.60
11321;BMP180;5715;48.234;14.320;2023-02-28T03:00:55;99228.00;;;7.50
11321;BMP180;5715;48.234;14.320;2023-02-28T03:03:44;99220.00;;;7.50
11321;BMP180;5715;48.234;14.320;2023-02-28T03:06:32;99223.00;;;7.40
11321;BMP180;5715;48.234;14.320;2023-02-28T03:09:23;99226.00;;;7.40
11321;BMP180;5715;48.234;14.320;2023-02-28T03:12:12;99228.00;;;7.40
11321;BMP180;5715;48.234;14.320;2023-02-28T03:15:26;99231.00;;;7.70
11321;BMP180;5715;48.234;14.320;2023-02-28T03:22:46;99227.00;;;7.40
11321;BMP180;5715;48.234;14.320;2023-02-28T03:25:54;99224.00;;;7.40
11321;BMP180;5715;48.234;14.320;2023-02-28T03:28:52;99226.00;;;7.40
11321;BMP180;5715;48.234;14.320;2023-02-28T03:31:52;99222.00;;;7.50
11321;BMP180;5715;48.234;14.320;2023-02-28T03:35:06;99214.00;;;7.30
11321;BMP180;5715;48.234;14.320;2023-02-28T03:38:13;99212.00;;;7.30
11321;BMP180;5715;48.234;14.320;2023-02-28T03:41:17;99219.00;;;6.90
11321;BMP180;5715;48.234;14.320;2023-02-28T03:44:14;99208.00;;;6.90
11321;BMP180;5715;48.234;14.320;2023-02-28T03:47:12;99206.00;;;7.30
11321;BMP180;5715;48.234;14.320;2023-02-28T03:53:36;99205.00;;;7.30
11321;BMP180;5715;48.234;14.320;2023-02-28T03:56:37;99212.00;;;7.10
11321;BMP180;5715;48.234;14.320;2023-02-28T03:59:32;99217.00;;;7.40
11321;BMP180;5715;48.234;14.320;2023-02-28T04:02:21;99210.00;;;7.40
11321;BMP180;5715;48.234;14.320;2023-02-28T04:05:09;99210.00;;;7.10
11321;BMP180;5715;48.234;14.320;2023-02-28T04:08:07;99217.00;;;7.20
11321;BMP180;5715;48.234;14.320;2023-02-28T04:11:08;99216.00;;;7.20
11321;BMP180;5715;48.234;14.320;2023-02-28T04:14:04;99212.00;;;7.40
11321;BMP180;5715;48.234;14.320;2023-02-28T04:16:52;99203.00;;;7.30
11321;BMP180;5715;48.234;14.320;2023-02-28T04:19:39;99215.00;;;7.30
11321;BMP180;5715;48.234;14.320;2023-02-28T04:22:27;99211.00;;;7.40
11321;BMP180;5715;48.234;14.320;2023-02-28T04:25:14;99212.00;;;7.20
11321;BMP180;5715;48.234;14.320;2023-02-28T04:28:02;99213.00;;;7.30
11321;BMP180;5715;48.234;14.320;2023-02-28T04:31:02;99214.00;;;7.30
11321;BMP180;5715;48.234;14.320;2023-02-28T04:33:50;99195.00;;;7.20
11321;BMP180;5715;48.234;14.320;2023-02-28T04:36:37;99204.00;;;7.30
11321;BMP180;5715;48.234;14.320;2023-02-28T04:39:25;99211.00;;;7.50
11321;BMP180;5715;48.234;14.320;2023-02-28T04:42:13;99210.00;;;7.40
11321;BMP180;5715;48.234;14.320;2023-02-28T04:45:02;99212.00;;;7.30
11321;BMP180;5715;48.234;14.320;2023-02-28T04:47:50;99204.00;;;7.30
11321;BMP180;5715;48.234;14.320;2023-02-28T04:50:37;99205.00;;;7.40
11321;BMP180;5715;48.234;14.320;2023-02-28T04:53:25;99211.00;;;7.50
11321;BMP180;5715;48.234;14.320;2023-02-28T04:56:16;99211.00;;;7.30
11321;BMP180;5715;48.234;14.320;2023-02-28T04:59:04;99212.00;;;7.40
11321;BMP180;5715;48.234;14.320;2023-02-28T05:01:51;99213.00;;;7.30
11321;BMP180;5715;48.234;14.320;2023-02-28T05:04:39;99219.00;;;7.30
11321;BMP180;5715;48.234;14.320;2023-02-28T05:07:26;99217.00;;;7.10
11321;BMP180;5715;48.234;14.320;2023-02-28T05:10:14;99210.00;;;7.20
11321;BMP180;5715;48.234;14.320;2023-02-28T05:13:01;99212.00;;;7.20
11321;BMP180;5715;48.234;14.320;2023-02-28T05:15:49;99210.00;;;7.20
11321;BMP180;5715;48.234;14.320;2023-02-28T05:18:37;99214.00;;;7.30
11321;BMP180;5715;48.234;14.320;2023-02-28T05:21:32;99214.00;;;7.10
11321;BMP180;5715;48.234;14.320;2023-02-28T05:24:21;99211.00;;;7.10
11321;BMP180;5715;48.234;14.320;2023-02-28T05:27:11;99216.00;;;6.90
11321;BMP180;5715;48.234;14.320;2023-02-28T05:29:59;99219.00;;;7.00
11321;BMP180;5715;48.234;14.320;2023-02-28T05:32:51;99218.00;;;7.10
11321;BMP180;5715;48.234;14.320;2023-02-28T05:35:40;99215.00;;;7.00
11321;BMP180;5715;48.234;14.320;2023-02-28T05:38:29;99221.00;;;6.80
11321;BMP180;5715;48.234;14.320;2023-02-28T05:41:18;99216.00;;;7.20
11321;BMP180;5715;48.234;14.320;2023-02-28T05:44:07;99210.00;;;7.00
11321;BMP180;5715;48.234;14.320;2023-02-28T05:46:54;99218.00;;;7.10
11321;BMP180;5715;48.234;14.320;2023-02-28T05:49:42;99217.00;;;7.00
11321;BMP180;5715;48.234;14.320;2023-02-28T05:52:29;99218.00;;;7.00
11321;BMP180;5715;48.234;14.320;2023-02-28T05:55:17;99216.00;;;7.20
11321;BMP180;5715;48.234;14.320;2023-02-28T05:58:05;99225.00;;;7.10
11321;BMP180;5715;48.234;14.320;2023-02-28T06:00:52;99223.00;;;7.20
11321;BMP180;5715;48.234;14.320;2023-02-28T06:03:40;99222.00;;;7.10
11321;BMP180;5715;48.234;14.320;2023-02-28T06:06:29;99223.00;;;7.20
11321;BMP180;5715;48.234;14.320;2023-02-28T06:09:17;99226.00;;;7.00
11321;BMP180;5715;48.234;14.320;2023-02-28T06:12:07;99232.00;;;7.00
11321;BMP180;5715;48.234;14.320;2023-02-28T06:14:57;99219.00;;;7.00
11321;BMP180;5715;48.234;14.320;2023-02-28T06:17:44;99223.00;;;7.30
11321;BMP180;5715;48.234;14.320;2023-02-28T06:20:32;99243.00;;;6.70
11321;BMP180;5715;48.234;14.320;2023-02-28T06:23:22;99232.00;;;7.40
11321;BMP180;5715;48.234;14.320;2023-02-28T06:26:10;99235.00;;;7.40
11321;BMP180;5715;48.234;14.320;2023-02-28T06:28:58;99239.00;;;7.40
11321;BMP180;5715;48.234;14.320;2023-02-28T06:31:46;99240.00;;;7.50
11321;BMP180;5715;48.234;14.320;2023-02-28T06:34:34;99250.00;;;7.60
11321;BMP180;5715;48.234;14.320;2023-02-28T06:37:21;99246.00;;;7.70
11321;BMP180;5715;48.234;14.320;2023-02-28T06:40:10;99243.00;;;7.60
11321;BMP180;5715;48.234;14.320;2023-02-28T06:42:57;99245.00;;;7.90
11321;BMP180;5715;48.234;14.320;2023-02-28T06:45:45;99245.00;;;7.90
11321;BMP180;5715;48.234;14.320;2023-02-28T06:48:33;99241.00;;;8.20
11321;BMP180;5715;48.234;14.320;2023-02-28T06:51:22;99250.00;;;8.20
11321;BMP180;5715;48.234;14.320;2023-02-28T06:54:12;99247.00;;;8.20
11321;BMP180;5715;48.234;14.320;2023-02-28T06:56:59;99256.00;;;8.40
11321;BMP180;5715;48.234;14.320;2023-02-28T06:59:47;99260.00;;;8.40
11321;BMP180;5715;48.234;14.320;2023-02-28T07:02:36;99250.00;;;8.50
11321;BMP180;5715;48.234;14.320;2023-02-28T07:05:27;99248.00;;;8.60
11321;BMP180;5715;48.234;14.320;2023-02-28T07:08:15;99246.00;;;8.70
11321;BMP180;5715;48.234;14.320;2023-02-28T07:11:04;99253.00;;;8.70
11321;BMP180;5715;48.234;14.320;2023-02-28T07:13:55;99252.00;;;8.80
11321;BMP180;5715;48.234;14.320;2023-02-28T07:16:43;99246.00;;;8.70
11321;BMP180;5715;48.234;14.320;2023-02-28T07:19:32;99246.00;;;8.70
11321;BMP180;5715;48.234;14.320;2023-02-28T07:22:20;99252.00;;;8.50
11321;BMP180;5715;48.234;14.320;2023-02-28T07:25:08;99250.00;;;9.00
11321;BMP180;5715;48.234;14.320;2023-02-28T07:27:56;99248.00;;;9.30
11321;BMP180;5715;48.234;14.320;2023-02-28T07:30:46;99246.00;;;9.20
11321;BMP180;5715;48.234;14.320;2023-02-28T07:33:34;99251.00;;;9.40
11321;BMP180;5715;48.234;14.320;2023-02-28T07:36:21;99247.00;;;9.50
11321;BMP180;5715;48.234;14.320;2023-02-28T07:39:09;99245.00;;;9.60
11321;BMP180;5715;48.234;14.320;2023-02-28T07:41:57;99252.00;;;9.60
11321;BMP180;5715;48.234;14.320;2023-02-28T07:44:44;99247.00;;;9.90
11321;BMP180;5715;48.234;14.320;2023-02-28T07:47:32;99252.00;;;9.90
11321;BMP180;5715;48.234;14.320;2023-02-28T07:50:20;99245.00;;;9.70
11321;BMP180;5715;48.234;14.320;2023-02-28T07:53:08;99255.00;;;10.20
11321;BMP180;5715;48.234;14.320;2023-02-28T07:56:01;99259.00;;;9.80
11321;BMP180;5715;48.234;14.320;2023-02-28T07:58:49;99252.00;;;10.00
11321;BMP180;5715;48.234;14.320;2023-02-28T08:01:37;99261.00;;;10.00
11321;BMP180;5715;48.234;14.320;2023-02-28T08:04:26;99261.00;;;9.90
11321;BMP180;5715;48.234;14.320;2023-02-28T08:07:14;99250.00;;;9.90
11321;BMP180;5715;48.234;14.320;2023-02-28T08:10:04;99260.00;;;10.30
11321;BMP180;5715;48.234;14.320;2023-02-28T08:12:52;99265.00;;;10.10
11321;BMP180;5715;48.234;14.320;2023-02-28T08:15:43;99255.00;;;9.90
11321;BMP180;5715;48.234;14.320;2023-02-28T08:18:32;99258.00;;;10.20
11321;BMP180;5715;48.234;14.320;2023-02-28T08:21:21;99254.00;;;10.40
11321;BMP180;5715;48.234;14.320;2023-02-28T08:24:08;99257.00;;;10.70
11321;BMP180;5715;48.234;14.320;2023-02-28T08:26:56;99251.00;;;10.40
11321;BMP180;5715;48.234;14.320;2023-02-28T08:29:44;99250.00;;;10.50
11321;BMP180;5715;48.234;14.320;2023-02-28T08:32:33;99250.00;;;10.70
11321;BMP180;5715;48.234;14.320;2023-02-28T08:35:22;99258.00;;;10.70
11321;BMP180;5715;48.234;14.320;2023-02-28T08:38:09;99258.00;;;10.60
11321;BMP180;5715;48.234;14.320;2023-02-28T08:41:00;99257.00;;;10.70
11321;BMP180;5715;48.234;14.320;2023-02-28T08:43:47;99258.00;;;11.10
11321;BMP180;5715;48.234;14.320;2023-02-28T08:46:35;99253.00;;;11.10
11321;BMP180;5715;48.234;14.320;2023-02-28T08:49:22;99268.00;;;10.90
11321;BMP180;5715;48.234;14.320;2023-02-28T08:52:10;99271.00;;;11.30
11321;BMP180;5715;48.234;14.320;2023-02-28T08:54:58;99272.00;;;11.60
11321;BMP180;5715;48.234;14.320;2023-02-28T08:57:45;99262.00;;;10.90
11321;BMP180;5715;48.234;14.320;2023-02-28T09:00:33;99262.00;;;10.90
11321;BMP180;5715;48.234;14.320;2023-02-28T09:03:21;99271.00;;;10.70
11321;BMP180;5715;48.234;14.320;2023-02-28T09:06:11;99281.00;;;11.30
11321;BMP180;5715;48.234;14.320;2023-02-28T09:08:59;99279.00;;;11.20
11321;BMP180;5715;48.234;14.320;2023-02-28T09:11:48;99279.00;;;11.30
11321;BMP180;5715;48.234;14.320;2023-02-28T09:14:35;99277.00;;;11.50
11321;BMP180;5715;48.234;14.320;2023-02-28T09:17:23;99279.00;;;11.60
11321;BMP180;5715;48.234;14.320;2023-02-28T09:20:17;99279.00;;;11.70
11321;BMP180;5715;48.234;14.320;2023-02-28T09:23:06;99274.00;;;11.20
11321;BMP180;5715;48.234;14.320;2023-02-28T09:25:55;99284.00;;;11.60
11321;BMP180;5715;48.234;14.320;2023-02-28T09:28:45;99277.00;;;11.40
11321;BMP180;5715;48.234;14.320;2023-02-28T09:31:33;99282.00;;;11.40
11321;BMP180;5715;48.234;14.320;2023-02-28T09:34:21;99292.00;;;11.70
11321;BMP180;5715;48.234;14.320;2023-02-28T09:37:09;99296.00;;;11.90
11321;BMP180;5715;48.234;14.320;2023-02-28T09:39:57;99289.00;;;11.70
11321;BMP180;5715;48.234;14.320;2023-02-28T09:42:48;99293.00;;;10.80
11321;BMP180;5715;48.234;14.320;2023-02-28T09:45:41;99300.00;;;11.70
11321;BMP180;5715;48.234;14.320;2023-02-28T09:48:36;99292.00;;;12.00
11321;BMP180;5715;48.234;14.320;2023-02-28T09:54:24;99296.00;;;12.20
11321;BMP180;5715;48.234;14.320;2023-02-28T10:00:24;99296.00;;;12.30
11321;BMP180;5715;48.234;14.320;2023-02-28T10:03:47;99294.00;;;11.80
11321;BMP180;5715;48.234;14.320;2023-02-28T10:06:50;99299.00;;;12.20
11321;BMP180;5715;48.234;14.320;2023-02-28T10:09:38;99288.00;;;12.20
11321;BMP180;5715;48.234;14.320;2023-02-28T10:12:27;99308.00;;;12.30
11321;BMP180;5715;48.234;14.320;2023-02-28T10:15:18;99305.00;;;12.80
11321;BMP180;5715;48.234;14.320;2023-02-28T10:18:16;99305.00;;;12.30
11321;BMP180;5715;48.234;14.320;2023-02-28T10:21:19;99307.00;;;12.60
11321;BMP180;5715;48.234;14.320;2023-02-28T10:24:44;99314.00;;;12.30
11321;BMP180;5715;48.234;14.320;2023-02-28T10:27:33;99312.00;;;12.20
11321;BMP180;5715;48.234;14.320;2023-02-28T10:30:20;99292.00;;;12.70
11321;BMP180;5715;48.234;14.320;2023-02-28T10:33:35;99292.00;;;12.60
11321;BMP180;5715;48.234;14.320;2023-02-28T10:36:23;99307.00;;;12.70
11321;BMP180;5715;48.234;14.320;2023-02-28T10:42:29;99295.00;;;13.30
11321;BMP180;5715;48.234;14.320;2023-02-28T10:45:17;99289.00;;;12.70
11321;BMP180;5715;48.234;14.320;2023-02-28T10:51:41;99290.00;;;13.80
11321;BMP180;5715;48.234;14.320;2023-02-28T10:54:36;99289.00;;;13.90
11321;BMP180;5715;48.234;14.320;2023-02-28T10:57:25;99281.00;;;13.40
11321;BMP180;5715;48.234;14.320;2023-02-28T11:00:24;99288.00;;;13.90
11321;BMP180;5715;48.234;14.320;2023-02-28T11:03:44;99288.00;;;13.60
11321;BMP180;5715;48.234;14.320;2023-02-28T11:06:34;99267.00;;;13.90
11321;BMP180;5715;48.234;14.320;2023-02-28T11:09:37;99262.00;;;13.20
11321;BMP180;5715;48.234;14.320;2023-02-28T11:12:38;99272.00;;;13.50
11321;BMP180;5715;48.234;14.320;2023-02-28T11:15:38;99269.00;;;14.20
11321;BMP180;5715;48.234;14.320;2023-02-28T11:18:54;99262.00;;;13.50
11321;BMP180;5715;48.234;14.320;2023-02-28T11:22:00;99260.00;;;13.70
11321;BMP180;5715;48.234;14.320;2023-02-28T11:24:53;99268.00;;;13.80
11321;BMP180;5715;48.234;14.320;2023-02-28T11:27:54;99265.00;;;13.90
11321;BMP180;5715;48.234;14.320;2023-02-28T11:30:42;99257.00;;;13.80
11321;BMP180;5715;48.234;14.320;2023-02-28T11:36:36;99273.00;;;13.60
11321;BMP180;5715;48.234;14.320;2023-02-28T11:39:33;99263.00;;;13.30
11321;BMP180;5715;48.234;14.320;2023-02-28T11:46:24;99256.00;;;14.70
11321;BMP180;5715;48.234;14.320;2023-02-28T11:53:05;99240.00;;;15.00
11321;BMP180;5715;48.234;14.320;2023-02-28T11:56:13;99257.00;;;14.60
11321;BMP180;5715;48.234;14.320;2023-02-28T12:03:00;99244.00;;;15.00
11321;BMP180;5715;48.234;14.320;2023-02-28T12:09:27;99252.00;;;15.10
11321;BMP180;5715;48.234;14.320;2023-02-28T12:12:39;99254.00;;;15.00
11321;BMP180;5715;48.234;14.320;2023-02-28T12:19:13;99248.00;;;15.00
11321;BMP180;5715;48.234;14.320;2023-02-28T12:28:53;99242.00;;;15.70
11321;BMP180;5715;48.234;14.320;2023-02-28T12:31:53;99237.00;;;15.40
11321;BMP180;5715;48.234;14.320;2023-02-28T12:35:16;99246.00;;;15.00
11321;BMP180;5715;48.234;14.320;2023-02-28T12:38:20;99245.00;;;15.50
11321;BMP180;5715;48.234;14.320;2023-02-28T12:41:18;99228.00;;;15.80
11321;BMP180;5715;48.234;14.320;2023-02-28T12:44:28;99237.00;;;15.70
11321;BMP180;5715;48.234;14.320;2023-02-28T12:47:18;99229.00;;;15.20
11321;BMP180;5715;48.234;14.320;2023-02-28T12:50:10;99225.00;;;14.50
11321;BMP180;5715;48.234;14.320;2023-02-28T12:59:49;99230.00;;;15.10
11321;BMP180;5715;48.234;14.320;2023-02-28T13:03:17;99210.00;;;15.20
11321;BMP180;5715;48.234;14.320;2023-02-28T13:06:34;99217.00;;;15.30
11321;BMP180;5715;48.234;14.320;2023-02-28T13:09:23;99217.00;;;15.30
11321;BMP180;5715;48.234;14.320;2023-02-28T13:12:15;99220.00;;;14.90
11321;BMP180;5715;48.234;14.320;2023-02-28T13:15:28;99216.00;;;15.00
11321;BMP180;5715;48.234;14.320;2023-02-28T13:21:43;99214.00;;;14.80
11321;BMP180;5715;48.234;14.320;2023-02-28T13:24:42;99212.00;;;14.90
11321;BMP180;5715;48.234;14.320;2023-02-28T13:27:40;99211.00;;;14.40
11321;BMP180;5715;48.234;14.320;2023-02-28T13:36:46;99209.00;;;15.00
11321;BMP180;5715;48.234;14.320;2023-02-28T13:48:29;99214.00;;;15.20
11321;BMP180;5715;48.234;14.320;2023-02-28T13:51:45;99215.00;;;15.00
11321;BMP180;5715;48.234;14.320;2023-02-28T14:05:21;99226.00;;;15.20
11321;BMP180;5715;48.234;14.320;2023-02-28T14:08:22;99221.00;;;15.30
11321;BMP180;5715;48.234;14.320;2023-02-28T14:11:29;99219.00;;;15.00
11321;BMP180;5715;48.234;14.320;2023-02-28T14:14:54;99220.00;;;15.30
11321;BMP180;5715;48.234;14.320;2023-02-28T14:17:42;99214.00;;;15.10
11321;BMP180;5715;48.234;14.320;2023-02-28T14:20:33;99217.00;;;14.70
11321;BMP180;5715;48.234;14.320;2023-02-28T14:31:16;99214.00;;;15.30
11321;BMP180;5715;48.234;14.320;2023-02-28T14:34:24;99213.00;;;15.20
11321;BMP180;5715;48.234;14.320;2023-02-28T14:37:26;99216.00;;;15.30
11321;BMP180;5715;48.234;14.320;2023-02-28T14:40:33;99207.00;;;14.80
11321;BMP180;5715;48.234;14.320;2023-02-28T14:43:26;99204.00;;;15.40
11321;BMP180;5715;48.234;14.320;2023-02-28T14:46:14;99209.00;;;15.40
11321;BMP180;5715;48.234;14.320;2023-02-28T14:49:06;99217.00;;;15.60
11321;BMP180;5715;48.234;14.320;2023-02-28T14:52:24;99214.00;;;15.60
11321;BMP180;5715;48.234;14.320;2023-02-28T14:55:17;99222.00;;;15.20
11321;BMP180;5715;48.234;14.320;2023-02-28T14:58:23;99235.00;;;15.60
11321;BMP180;5715;48.234;14.320;2023-02-28T15:01:11;99224.00;;;14.40
11321;BMP180;5715;48.234;14.320;2023-02-28T15:04:05;99222.00;;;14.80
11321;BMP180;5715;48.234;14.320;2023-02-28T15:07:14;99235.00;;;14.30
11321;BMP180;5715;48.234;14.320;2023-02-28T15:10:25;99234.00;;;14.00
11321;BMP180;5715;48.234;14.320;2023-02-28T15:13:15;99246.00;;;14.10
11321;BMP180;5715;48.234;14.320;2023-02-28T15:16:09;99246.00;;;13.50
11321;BMP180;5715;48.234;14.320;2023-02-28T15:19:06;99249.00;;;14.00
11321;BMP180;5715;48.234;14.320;2023-02-28T15:22:01;99249.00;;;14.00
11321;BMP180;5715;48.234;14.320;2023-02-28T15:24:52;99258.00;;;13.30
11321;BMP180;5715;48.234;14.320;2023-02-28T15:27:52;99258.00;;;13.10
11321;BMP180;5715;48.234;14.320;2023-02-28T15:31:02;99263.00;;;14.10
11321;BMP180;5715;48.234;14.320;2023-02-28T15:33:56;99264.00;;;13.30
11321;BMP180;5715;48.234;14.320;2023-02-28T15:36:44;99275.00;;;12.70
11321;BMP180;5715;48.234;14.320;2023-02-28T15:39:42;99265.00;;;13.40
11321;BMP180;5715;48.234;14.320;2023-02-28T15:42:31;99263.00;;;12.00
11321;BMP180;5715;48.234;14.320;2023-02-28T15:45:45;99270.00;;;12.70
11321;BMP180;5715;48.234;14.320;2023-02-28T15:48:42;99267.00;;;12.70
11321;BMP180;5715;48.234;14.320;2023-02-28T15:51:36;99268.00;;;13.00
11321;BMP180;5715;48.234;14.320;2023-02-28T15:54:35;99267.00;;;13.00
11321;BMP180;5715;48.234;14.320;2023-02-28T15:57:27;99274.00;;;12.70
11321;BMP180;5715;48.234;14.320;2023-02-28T16:00:28;99265.00;;;12.70
11321;BMP180;5715;48.234;14.320;2023-02-28T16:03:40;99264.00;;;13.40
11321;BMP180;5715;48.234;14.320;2023-02-28T16:06:47;99265.00;;;13.20
11321;BMP180;5715;48.234;14.320;2023-02-28T16:09:47;99271.00;;;13.30
11321;BMP180;5715;48.234;14.320;2023-02-28T16:12:38;99280.00;;;12.80
11321;BMP180;5715;48.234;14.320;2023-02-28T16:15:31;99282.00;;;12.90
11321;BMP180;5715;48.234;14.320;2023-02-28T16:18:22;99276.00;;;12.10
11321;BMP180;5715;48.234;14.320;2023-02-28T16:21:09;99287.00;;;12.90
11321;BMP180;5715;48.234;14.320;2023-02-28T16:23:57;99281.00;;;13.20
11321;BMP180;5715;48.234;14.320;2023-02-28T16:26:50;99277.00;;;13.10
11321;BMP180;5715;48.234;14.320;2023-02-28T16:29:39;99292.00;;;12.50
11321;BMP180;5715;48.234;14.320;2023-02-28T16:32:27;99288.00;;;12.50
11321;BMP180;5715;48.234;14.320;2023-02-28T16:35:17;99290.00;;;12.40
11321;BMP180;5715;48.234;14.320;2023-02-28T16:38:05;99291.00;;;12.60
11321;BMP180;5715;48.234;14.320;2023-02-28T16:40:55;99293.00;;;12.80
11321;BMP180;5715;48.234;14.320;2023-02-28T16:43:50;99305.00;;;13.00
11321;BMP180;5715;48.234;14.320;2023-02-28T16:46:38;99309.00;;;12.20
11321;BMP180;5715;48.234;14.320;2023-02-28T16:49:26;99298.00;;;11.70
11321;BMP180;5715;48.234;14.320;2023-02-28T16:52:14;99305.00;;;12.40
11321;BMP180;5715;48.234;14.320;2023-02-28T16:55:02;99308.00;;;12.50
11321;BMP180;5715;48.234;14.320;2023-02-28T16:58:00;99297.00;;;12.40
11321;BMP180;5715;48.234;14.320;2023-02-28T17:00:48;99308.00;;;12.50
11321;BMP180;5715;48.234;14.320;2023-02-28T17:03:36;99305.00;;;12.80
11321;BMP180;5715;48.234;14.320;2023-02-28T17:06:27;99314.00;;;12.90
11321;BMP180;5715;48.234;14.320;2023-02-28T17:09:20;99317.00;;;12.70
11321;BMP180;5715;48.234;14.320;2023-02-28T17:12:16;99318.00;;;12.60
11321;BMP180;5715;48.234;14.320;2023-02-28T17:15:05;99321.00;;;12.70
11321;BMP180;5715;48.234;14.320;2023-02-28T17:17:53;99323.00;;;12.50
11321;BMP180;5715;48.234;14.320;2023-02-28T17:20:41;99326.00;;;12.30
11321;BMP180;5715;48.234;14.320;2023-02-28T17:23:29;99327.00;;;12.60
11321;BMP180;5715;48.234;14.320;2023-02-28T17:26:19;99326.00;;;12.30
11321;BMP180;5715;48.234;14.320;2023-02-28T17:29:17;99325.00;;;12.80
11321;BMP180;5715;48.234;14.320;2023-02-28T17:32:05;99337.00;;;12.40
11321;BMP180;5715;48.234;14.320;2023-02-28T17:35:04;99348.00;;;12.50
11321;BMP180;5715;48.234;14.320;2023-02-28T17:37:52;99337.00;;;12.50
11321;BMP180;5715;48.234;14.320;2023-02-28T17:40:39;99340.00;;;12.50
11321;BMP180;5715;48.234;14.320;2023-02-28T17:43:27;99348.00;;;12.30
11321;BMP180;5715;48.234;14.320;2023-02-28T17:46:21;99346.00;;;12.60
11321;BMP180;5715;48.234;14.320;2023-02-28T17:49:10;99347.00;;;12.70
11321;BMP180;5715;48.234;14.320;2023-02-28T17:51:57;99357.00;;;12.30
11321;BMP180;5715;48.234;14.320;2023-02-28T17:54:45;99348.00;;;12.20
11321;BMP180;5715;48.234;14.320;2023-02-28T17:57:32;99348.00;;;12.40
11321;BMP180;5715;48.234;14.320;2023-02-28T18:00:21;99354.00;;;12.20
11321;BMP180;5715;48.234;14.320;2023-02-28T18:03:11;99355.00;;;12.30
11321;BMP180;5715;48.234;14.320;2023-02-28T18:06:01;99350.00;;;12.30
11321;BMP180;5715;48.234;14.320;2023-02-28T18:08:49;99350.00;;;12.40
11321;BMP180;5715;48.234;14.320;2023-02-28T18:11:38;99360.00;;;12.40
11321;BMP180;5715;48.234;14.320;2023-02-28T18:14:31;99358.00;;;12.10
11321;BMP180;5715;48.234;14.320;2023-02-28T18:17:18;99361.00;;;12.30
11321;BMP180;5715;48.234;14.320;2023-02-28T18:20:06;99348.00;;;12.10
11321;BMP180;5715;48.234;14.320;2023-02-28T18:22:54;99358.00;;;12.20
11321;BMP180;5715;48.234;14.320;2023-02-28T18:25:42;99364.00;;;12.20
11321;BMP180;5715;48.234;14.320;2023-02-28T18:28:29;99364.00;;;12.20
11321;BMP180;5715;48.234;14.320;2023-02-28T18:31:19;99378.00;;;11.50